Cumberland Gap, Tennessee
Current Conditions -  °F | °C
As of 8:35 AM on Tuesday 21 Oct 2014 (Local Time) from K1A6 Reporting Station
Scattered Clouds Scattered Clouds  
Wind Chill: 43°   Ceiling: Unl
Heat Index: 43°   Visibility: 10mi
Dew Point: 43°   Wind: 0mph
Humidity: 99%   Direction: NA
Pressure: 30.01"   Gusts: NA
Location:  36.6°N, 83.67°W
Report Text: K1A6 211235Z AUTO 00000KT 10SM SCT002 06/06 A3001 RMK AO2 T00620061
Loading
Personal Weather Stations






























Interactive Weather Map
Tropical Storm Tracking
New forecast layout! Learn more

10-Day Weather Forecast

Advertisements
Track Severe Weather on mobile